sensor_id;sensor_type;location;lat;lon;timestamp;temperature;humidity
16901;DHT22;8567;52.540;6.434;2022-08-19T00:00:49;23.40;56.70
16901;DHT22;8567;52.540;6.434;2022-08-19T00:03:16;23.40;56.60
16901;DHT22;8567;52.540;6.434;2022-08-19T00:05:45;23.40;56.50
16901;DHT22;8567;52.540;6.434;2022-08-19T00:08:11;23.40;56.50
16901;DHT22;8567;52.540;6.434;2022-08-19T00:10:38;23.30;56.60
16901;DHT22;8567;52.540;6.434;2022-08-19T00:13:05;23.30;56.60
16901;DHT22;8567;52.540;6.434;2022-08-19T00:15:32;23.30;56.50
16901;DHT22;8567;52.540;6.434;2022-08-19T00:17:59;23.30;56.50
16901;DHT22;8567;52.540;6.434;2022-08-19T00:20:26;23.30;56.30
16901;DHT22;8567;52.540;6.434;2022-08-19T00:22:54;23.30;56.40
16901;DHT22;8567;52.540;6.434;2022-08-19T00:25:21;23.20;56.40
16901;DHT22;8567;52.540;6.434;2022-08-19T00:27:48;23.20;56.30
16901;DHT22;8567;52.540;6.434;2022-08-19T00:30:15;23.10;56.20
16901;DHT22;8567;52.540;6.434;2022-08-19T00:32:42;23.20;56.20
16901;DHT22;8567;52.540;6.434;2022-08-19T00:35:09;23.20;56.20
16901;DHT22;8567;52.540;6.434;2022-08-19T00:37:37;23.20;56.20
16901;DHT22;8567;52.540;6.434;2022-08-19T00:40:11;23.20;55.90
16901;DHT22;8567;52.540;6.434;2022-08-19T00:42:39;23.20;55.80
16901;DHT22;8567;52.540;6.434;2022-08-19T00:45:11;23.20;55.50
16901;DHT22;8567;52.540;6.434;2022-08-19T00:47:38;23.10;55.40
16901;DHT22;8567;52.540;6.434;2022-08-19T00:50:06;23.10;55.60
16901;DHT22;8567;52.540;6.434;2022-08-19T00:52:37;23.10;55.80
16901;DHT22;8567;52.540;6.434;2022-08-19T00:55:12;23.10;56.00
16901;DHT22;8567;52.540;6.434;2022-08-19T00:57:42;23.00;56.00
16901;DHT22;8567;52.540;6.434;2022-08-19T01:00:13;23.00;56.10
16901;DHT22;8567;52.540;6.434;2022-08-19T01:02:41;23.00;56.20
16901;DHT22;8567;52.540;6.434;2022-08-19T01:05:11;23.00;56.40
16901;DHT22;8567;52.540;6.434;2022-08-19T01:07:39;23.00;56.60
16901;DHT22;8567;52.540;6.434;2022-08-19T01:10:10;23.00;56.70
16901;DHT22;8567;52.540;6.434;2022-08-19T01:12:38;23.00;56.80
16901;DHT22;8567;52.540;6.434;2022-08-19T01:15:09;22.90;56.90
16901;DHT22;8567;52.540;6.434;2022-08-19T01:17:38;23.00;56.90
16901;DHT22;8567;52.540;6.434;2022-08-19T01:20:07;23.00;56.90
16901;DHT22;8567;52.540;6.434;2022-08-19T01:22:41;22.90;56.90
16901;DHT22;8567;52.540;6.434;2022-08-19T01:25:09;22.90;56.80
16901;DHT22;8567;52.540;6.434;2022-08-19T01:27:38;22.90;56.70
16901;DHT22;8567;52.540;6.434;2022-08-19T01:30:07;22.90;56.80
16901;DHT22;8567;52.540;6.434;2022-08-19T01:32:34;22.90;56.90
16901;DHT22;8567;52.540;6.434;2022-08-19T01:35:02;22.90;57.00
16901;DHT22;8567;52.540;6.434;2022-08-19T01:37:40;22.90;57.00
16901;DHT22;8567;52.540;6.434;2022-08-19T01:40:10;22.90;57.00
16901;DHT22;8567;52.540;6.434;2022-08-19T01:42:37;22.90;57.00
16901;DHT22;8567;52.540;6.434;2022-08-19T01:45:05;22.90;56.90
16901;DHT22;8567;52.540;6.434;2022-08-19T01:47:34;22.90;57.00
16901;DHT22;8567;52.540;6.434;2022-08-19T01:50:00;22.90;57.10
16901;DHT22;8567;52.540;6.434;2022-08-19T01:52:27;22.80;57.30
16901;DHT22;8567;52.540;6.434;2022-08-19T01:54:54;22.80;57.40
16901;DHT22;8567;52.540;6.434;2022-08-19T01:57:22;22.80;57.40
16901;DHT22;8567;52.540;6.434;2022-08-19T01:59:49;22.80;57.50
16901;DHT22;8567;52.540;6.434;2022-08-19T02:02:17;22.80;57.50
16901;DHT22;8567;52.540;6.434;2022-08-19T02:04:43;22.80;57.50
16901;DHT22;8567;52.540;6.434;2022-08-19T02:07:11;22.80;57.50
16901;DHT22;8567;52.540;6.434;2022-08-19T02:09:38;22.80;57.50
16901;DHT22;8567;52.540;6.434;2022-08-19T02:12:06;22.80;57.50
16901;DHT22;8567;52.540;6.434;2022-08-19T02:14:35;22.80;57.70
16901;DHT22;8567;52.540;6.434;2022-08-19T02:17:02;22.80;57.70
16901;DHT22;8567;52.540;6.434;2022-08-19T02:19:29;22.80;57.70
16901;DHT22;8567;52.540;6.434;2022-08-19T02:21:57;22.80;57.70
16901;DHT22;8567;52.540;6.434;2022-08-19T02:24:24;22.70;57.80
16901;DHT22;8567;52.540;6.434;2022-08-19T02:26:50;22.70;57.80
16901;DHT22;8567;52.540;6.434;2022-08-19T02:29:17;22.70;57.90
16901;DHT22;8567;52.540;6.434;2022-08-19T02:31:45;22.70;57.80
16901;DHT22;8567;52.540;6.434;2022-08-19T02:34:12;22.70;57.80
16901;DHT22;8567;52.540;6.434;2022-08-19T02:36:39;22.70;57.80
16901;DHT22;8567;52.540;6.434;2022-08-19T02:39:06;22.70;57.60
16901;DHT22;8567;52.540;6.434;2022-08-19T02:41:33;22.80;57.10
16901;DHT22;8567;52.540;6.434;2022-08-19T02:44:01;22.70;56.80
16901;DHT22;8567;52.540;6.434;2022-08-19T02:46:30;22.70;56.80
16901;DHT22;8567;52.540;6.434;2022-08-19T02:49:01;22.70;56.50
16901;DHT22;8567;52.540;6.434;2022-08-19T02:51:31;22.60;56.50
16901;DHT22;8567;52.540;6.434;2022-08-19T02:53:59;22.60;56.20
16901;DHT22;8567;52.540;6.434;2022-08-19T02:56:26;22.50;56.30
16901;DHT22;8567;52.540;6.434;2022-08-19T02:58:53;22.50;56.50
16901;DHT22;8567;52.540;6.434;2022-08-19T03:01:21;22.50;56.70
16901;DHT22;8567;52.540;6.434;2022-08-19T03:03:48;22.50;56.60
16901;DHT22;8567;52.540;6.434;2022-08-19T03:06:17;22.50;56.60
16901;DHT22;8567;52.540;6.434;2022-08-19T03:08:46;22.50;56.80
16901;DHT22;8567;52.540;6.434;2022-08-19T03:11:14;22.40;56.90
16901;DHT22;8567;52.540;6.434;2022-08-19T03:13:42;22.40;56.80
16901;DHT22;8567;52.540;6.434;2022-08-19T03:16:10;22.40;56.70
16901;DHT22;8567;52.540;6.434;2022-08-19T03:18:37;22.40;56.60
16901;DHT22;8567;52.540;6.434;2022-08-19T03:21:05;22.40;56.20
16901;DHT22;8567;52.540;6.434;2022-08-19T03:23:34;22.40;56.00
16901;DHT22;8567;52.540;6.434;2022-08-19T03:26:04;22.30;55.80
16901;DHT22;8567;52.540;6.434;2022-08-19T03:28:32;22.30;55.80
16901;DHT22;8567;52.540;6.434;2022-08-19T03:31:02;22.30;55.80
16901;DHT22;8567;52.540;6.434;2022-08-19T03:33:30;22.30;55.80
16901;DHT22;8567;52.540;6.434;2022-08-19T03:36:16;22.30;55.60
16901;DHT22;8567;52.540;6.434;2022-08-19T03:38:47;22.30;55.30
16901;DHT22;8567;52.540;6.434;2022-08-19T03:41:16;22.20;55.60
16901;DHT22;8567;52.540;6.434;2022-08-19T03:43:45;22.30;55.60
16901;DHT22;8567;52.540;6.434;2022-08-19T03:46:15;22.20;55.60
16901;DHT22;8567;52.540;6.434;2022-08-19T03:48:43;22.20;55.60
16901;DHT22;8567;52.540;6.434;2022-08-19T03:51:16;22.20;55.70
16901;DHT22;8567;52.540;6.434;2022-08-19T03:53:46;22.20;55.50
16901;DHT22;8567;52.540;6.434;2022-08-19T03:56:14;22.20;55.40
16901;DHT22;8567;52.540;6.434;2022-08-19T03:58:41;22.10;55.30
16901;DHT22;8567;52.540;6.434;2022-08-19T04:01:10;22.10;55.30
16901;DHT22;8567;52.540;6.434;2022-08-19T04:03:38;22.10;55.20
16901;DHT22;8567;52.540;6.434;2022-08-19T04:06:12;22.10;55.10
16901;DHT22;8567;52.540;6.434;2022-08-19T04:08:39;22.00;55.00
16901;DHT22;8567;52.540;6.434;2022-08-19T04:11:10;22.00;55.30
16901;DHT22;8567;52.540;6.434;2022-08-19T04:13:37;22.00;55.50
16901;DHT22;8567;52.540;6.434;2022-08-19T04:16:04;22.00;55.60
16901;DHT22;8567;52.540;6.434;2022-08-19T04:18:31;22.00;55.70
16901;DHT22;8567;52.540;6.434;2022-08-19T04:20:58;22.00;55.80
16901;DHT22;8567;52.540;6.434;2022-08-19T04:23:26;22.00;55.90
16901;DHT22;8567;52.540;6.434;2022-08-19T04:25:54;21.90;55.60
16901;DHT22;8567;52.540;6.434;2022-08-19T04:28:23;21.90;55.60
16901;DHT22;8567;52.540;6.434;2022-08-19T04:30:51;21.90;55.20
16901;DHT22;8567;52.540;6.434;2022-08-19T04:33:21;21.90;55.00
16901;DHT22;8567;52.540;6.434;2022-08-19T04:35:51;21.90;54.80
16901;DHT22;8567;52.540;6.434;2022-08-19T04:38:21;21.90;55.00
16901;DHT22;8567;52.540;6.434;2022-08-19T04:40:50;21.90;55.10
16901;DHT22;8567;52.540;6.434;2022-08-19T04:43:37;21.90;55.00
16901;DHT22;8567;52.540;6.434;2022-08-19T04:46:05;21.90;54.90
16901;DHT22;8567;52.540;6.434;2022-08-19T04:48:33;21.90;54.80
16901;DHT22;8567;52.540;6.434;2022-08-19T04:51:00;21.80;54.70
16901;DHT22;8567;52.540;6.434;2022-08-19T04:53:28;21.80;54.70
16901;DHT22;8567;52.540;6.434;2022-08-19T04:55:55;21.80;54.80
16901;DHT22;8567;52.540;6.434;2022-08-19T04:58:23;21.80;54.90
16901;DHT22;8567;52.540;6.434;2022-08-19T05:00:51;21.80;54.90
16901;DHT22;8567;52.540;6.434;2022-08-19T05:03:18;21.80;54.80
16901;DHT22;8567;52.540;6.434;2022-08-19T05:05:46;21.80;54.80
16901;DHT22;8567;52.540;6.434;2022-08-19T05:08:16;21.80;54.80
16901;DHT22;8567;52.540;6.434;2022-08-19T05:10:46;21.70;55.00
16901;DHT22;8567;52.540;6.434;2022-08-19T05:13:14;21.80;55.00
16901;DHT22;8567;52.540;6.434;2022-08-19T05:15:42;21.80;55.00
16901;DHT22;8567;52.540;6.434;2022-08-19T05:18:10;21.80;55.10
16901;DHT22;8567;52.540;6.434;2022-08-19T05:20:54;21.80;55.20
16901;DHT22;8567;52.540;6.434;2022-08-19T05:23:38;21.80;55.30
16901;DHT22;8567;52.540;6.434;2022-08-19T05:26:06;21.70;55.30
16901;DHT22;8567;52.540;6.434;2022-08-19T05:28:34;21.70;55.30
16901;DHT22;8567;52.540;6.434;2022-08-19T05:31:01;21.80;55.40
16901;DHT22;8567;52.540;6.434;2022-08-19T05:33:30;21.80;55.40
16901;DHT22;8567;52.540;6.434;2022-08-19T05:35:56;21.80;55.50
16901;DHT22;8567;52.540;6.434;2022-08-19T05:38:24;21.80;55.80
16901;DHT22;8567;52.540;6.434;2022-08-19T05:40:52;21.90;56.00
16901;DHT22;8567;52.540;6.434;2022-08-19T05:43:18;21.90;56.10
16901;DHT22;8567;52.540;6.434;2022-08-19T05:45:45;22.00;56.20
16901;DHT22;8567;52.540;6.434;2022-08-19T05:48:13;22.00;56.20
16901;DHT22;8567;52.540;6.434;2022-08-19T05:50:41;22.00;56.40
16901;DHT22;8567;52.540;6.434;2022-08-19T05:53:10;22.00;56.50
16901;DHT22;8567;52.540;6.434;2022-08-19T05:55:37;22.00;56.60
16901;DHT22;8567;52.540;6.434;2022-08-19T05:58:05;22.00;56.80
16901;DHT22;8567;52.540;6.434;2022-08-19T06:00:33;21.90;57.00
16901;DHT22;8567;52.540;6.434;2022-08-19T06:02:59;21.90;57.20
16901;DHT22;8567;52.540;6.434;2022-08-19T06:05:28;22.00;57.40
16901;DHT22;8567;52.540;6.434;2022-08-19T06:07:57;22.00;57.40
16901;DHT22;8567;52.540;6.434;2022-08-19T06:10:25;22.10;57.50
16901;DHT22;8567;52.540;6.434;2022-08-19T06:12:52;22.10;57.90
16901;DHT22;8567;52.540;6.434;2022-08-19T06:15:19;22.10;58.50
16901;DHT22;8567;52.540;6.434;2022-08-19T06:17:51;22.20;59.00
16901;DHT22;8567;52.540;6.434;2022-08-19T06:20:18;22.20;59.30
16901;DHT22;8567;52.540;6.434;2022-08-19T06:22:49;22.30;60.00
16901;DHT22;8567;52.540;6.434;2022-08-19T06:25:18;22.40;60.20
16901;DHT22;8567;52.540;6.434;2022-08-19T06:27:45;22.40;60.10
16901;DHT22;8567;52.540;6.434;2022-08-19T06:30:12;22.40;60.50
16901;DHT22;8567;52.540;6.434;2022-08-19T06:32:40;22.40;60.50
16901;DHT22;8567;52.540;6.434;2022-08-19T06:35:07;22.50;61.10
16901;DHT22;8567;52.540;6.434;2022-08-19T06:37:34;22.30;62.20
16901;DHT22;8567;52.540;6.434;2022-08-19T06:40:01;22.10;63.50
16901;DHT22;8567;52.540;6.434;2022-08-19T06:42:29;22.20;63.30
16901;DHT22;8567;52.540;6.434;2022-08-19T06:44:55;22.20;63.40
16901;DHT22;8567;52.540;6.434;2022-08-19T06:47:23;22.20;63.40
16901;DHT22;8567;52.540;6.434;2022-08-19T06:49:53;22.20;63.40
16901;DHT22;8567;52.540;6.434;2022-08-19T06:52:25;22.20;63.80
16901;DHT22;8567;52.540;6.434;2022-08-19T06:54:52;22.20;64.20
16901;DHT22;8567;52.540;6.434;2022-08-19T06:57:20;22.20;64.30
16901;DHT22;8567;52.540;6.434;2022-08-19T06:59:48;22.30;64.10
16901;DHT22;8567;52.540;6.434;2022-08-19T07:02:15;22.30;64.10
16901;DHT22;8567;52.540;6.434;2022-08-19T07:04:42;22.40;64.00
16901;DHT22;8567;52.540;6.434;2022-08-19T07:07:10;22.40;64.10
16901;DHT22;8567;52.540;6.434;2022-08-19T07:09:40;22.40;64.00
16901;DHT22;8567;52.540;6.434;2022-08-19T07:12:10;22.50;64.30
16901;DHT22;8567;52.540;6.434;2022-08-19T07:14:38;22.50;64.50
16901;DHT22;8567;52.540;6.434;2022-08-19T07:17:09;22.60;63.90
16901;DHT22;8567;52.540;6.434;2022-08-19T07:19:36;22.60;64.20
16901;DHT22;8567;52.540;6.434;2022-08-19T07:22:06;22.70;64.20
16901;DHT22;8567;52.540;6.434;2022-08-19T07:24:34;22.70;64.20
16901;DHT22;8567;52.540;6.434;2022-08-19T07:27:02;22.70;64.30
16901;DHT22;8567;52.540;6.434;2022-08-19T07:29:32;22.70;64.60
16901;DHT22;8567;52.540;6.434;2022-08-19T07:32:00;22.90;65.20
16901;DHT22;8567;52.540;6.434;2022-08-19T07:34:29;23.10;64.10
16901;DHT22;8567;52.540;6.434;2022-08-19T07:36:57;23.20;64.20
16901;DHT22;8567;52.540;6.434;2022-08-19T07:39:27;23.40;63.60
16901;DHT22;8567;52.540;6.434;2022-08-19T07:41:56;23.50;63.30
16901;DHT22;8567;52.540;6.434;2022-08-19T07:44:23;23.60;63.10
16901;DHT22;8567;52.540;6.434;2022-08-19T07:46:52;23.90;62.70
16901;DHT22;8567;52.540;6.434;2022-08-19T07:49:21;23.90;62.30
16901;DHT22;8567;52.540;6.434;2022-08-19T07:51:51;23.90;62.00
16901;DHT22;8567;52.540;6.434;2022-08-19T07:54:20;23.50;63.00
16901;DHT22;8567;52.540;6.434;2022-08-19T07:56:47;23.30;63.80
16901;DHT22;8567;52.540;6.434;2022-08-19T07:59:15;23.20;64.10
16901;DHT22;8567;52.540;6.434;2022-08-19T08:01:43;23.30;64.20
16901;DHT22;8567;52.540;6.434;2022-08-19T08:04:10;23.30;64.20
16901;DHT22;8567;52.540;6.434;2022-08-19T08:06:55;23.20;64.40
16901;DHT22;8567;52.540;6.434;2022-08-19T08:09:42;23.20;64.00
16901;DHT22;8567;52.540;6.434;2022-08-19T08:12:12;23.30;64.20
16901;DHT22;8567;52.540;6.434;2022-08-19T08:14:43;23.40;64.00
16901;DHT22;8567;52.540;6.434;2022-08-19T08:17:12;23.50;63.80
16901;DHT22;8567;52.540;6.434;2022-08-19T08:19:40;23.60;63.10
16901;DHT22;8567;52.540;6.434;2022-08-19T08:22:09;23.70;62.70
16901;DHT22;8567;52.540;6.434;2022-08-19T08:24:59;23.60;63.00
16901;DHT22;8567;52.540;6.434;2022-08-19T08:27:27;23.60;62.70
16901;DHT22;8567;52.540;6.434;2022-08-19T08:29:54;23.60;62.90
16901;DHT22;8567;52.540;6.434;2022-08-19T08:32:21;23.70;62.60
16901;DHT22;8567;52.540;6.434;2022-08-19T08:34:48;23.60;63.10
16901;DHT22;8567;52.540;6.434;2022-08-19T08:37:16;23.60;63.00
16901;DHT22;8567;52.540;6.434;2022-08-19T08:39:43;23.60;62.90
16901;DHT22;8567;52.540;6.434;2022-08-19T08:42:13;23.70;62.70
16901;DHT22;8567;52.540;6.434;2022-08-19T08:44:49;23.90;62.20
16901;DHT22;8567;52.540;6.434;2022-08-19T08:47:18;24.10;61.50
16901;DHT22;8567;52.540;6.434;2022-08-19T08:49:50;24.00;61.40
16901;DHT22;8567;52.540;6.434;2022-08-19T08:52:22;24.00;60.80
16901;DHT22;8567;52.540;6.434;2022-08-19T08:54:54;24.10;60.30
16901;DHT22;8567;52.540;6.434;2022-08-19T08:57:25;24.00;60.60
16901;DHT22;8567;52.540;6.434;2022-08-19T08:59:54;23.90;60.60
16901;DHT22;8567;52.540;6.434;2022-08-19T09:02:24;24.10;60.10
16901;DHT22;8567;52.540;6.434;2022-08-19T09:04:51;24.00;60.20
16901;DHT22;8567;52.540;6.434;2022-08-19T09:07:39;24.00;60.10
16901;DHT22;8567;52.540;6.434;2022-08-19T09:10:18;24.20;59.30
16901;DHT22;8567;52.540;6.434;2022-08-19T09:12:54;24.20;59.00
16901;DHT22;8567;52.540;6.434;2022-08-19T09:15:29;24.20;58.80
16901;DHT22;8567;52.540;6.434;2022-08-19T09:17:59;24.10;59.00
16901;DHT22;8567;52.540;6.434;2022-08-19T09:20:27;24.10;58.40
16901;DHT22;8567;52.540;6.434;2022-08-19T09:22:55;24.00;58.60
16901;DHT22;8567;52.540;6.434;2022-08-19T09:25:23;24.10;58.50
16901;DHT22;8567;52.540;6.434;2022-08-19T09:27:51;24.10;59.20
16901;DHT22;8567;52.540;6.434;2022-08-19T09:30:20;24.20;58.70
16901;DHT22;8567;52.540;6.434;2022-08-19T09:32:49;24.30;58.90
16901;DHT22;8567;52.540;6.434;2022-08-19T09:35:18;24.40;59.20
16901;DHT22;8567;52.540;6.434;2022-08-19T09:37:47;24.40;58.40
16901;DHT22;8567;52.540;6.434;2022-08-19T09:40:16;24.30;58.50
16901;DHT22;8567;52.540;6.434;2022-08-19T09:42:43;24.30;58.80
16901;DHT22;8567;52.540;6.434;2022-08-19T09:45:12;24.30;59.00
16901;DHT22;8567;52.540;6.434;2022-08-19T09:47:39;24.60;58.00
16901;DHT22;8567;52.540;6.434;2022-08-19T09:50:08;24.60;58.30
16901;DHT22;8567;52.540;6.434;2022-08-19T09:52:35;24.50;58.80
16901;DHT22;8567;52.540;6.434;2022-08-19T09:55:03;24.60;58.00
16901;DHT22;8567;52.540;6.434;2022-08-19T09:57:31;24.50;57.70
16901;DHT22;8567;52.540;6.434;2022-08-19T09:59:58;24.50;57.90
16901;DHT22;8567;52.540;6.434;2022-08-19T10:02:25;24.50;57.90
16901;DHT22;8567;52.540;6.434;2022-08-19T10:04:52;24.50;56.70
16901;DHT22;8567;52.540;6.434;2022-08-19T10:07:36;24.40;55.90
16901;DHT22;8567;52.540;6.434;2022-08-19T10:10:04;24.70;54.70
16901;DHT22;8567;52.540;6.434;2022-08-19T10:12:33;24.80;53.60
16901;DHT22;8567;52.540;6.434;2022-08-19T10:15:00;24.80;53.90
16901;DHT22;8567;52.540;6.434;2022-08-19T10:17:27;24.80;54.50
16901;DHT22;8567;52.540;6.434;2022-08-19T10:19:54;24.70;54.80
16901;DHT22;8567;52.540;6.434;2022-08-19T10:22:21;24.90;54.90
16901;DHT22;8567;52.540;6.434;2022-08-19T10:24:48;25.10;55.50
16901;DHT22;8567;52.540;6.434;2022-08-19T10:27:15;25.00;55.50
16901;DHT22;8567;52.540;6.434;2022-08-19T10:29:43;25.00;55.70
16901;DHT22;8567;52.540;6.434;2022-08-19T10:32:10;25.00;55.90
16901;DHT22;8567;52.540;6.434;2022-08-19T10:34:38;25.00;55.50
16901;DHT22;8567;52.540;6.434;2022-08-19T10:37:05;25.10;55.50
16901;DHT22;8567;52.540;6.434;2022-08-19T10:39:33;25.10;55.50
16901;DHT22;8567;52.540;6.434;2022-08-19T10:42:04;25.10;55.60
16901;DHT22;8567;52.540;6.434;2022-08-19T10:44:32;25.00;55.70
16901;DHT22;8567;52.540;6.434;2022-08-19T10:47:02;24.90;55.80
16901;DHT22;8567;52.540;6.434;2022-08-19T10:49:29;24.90;56.00
16901;DHT22;8567;52.540;6.434;2022-08-19T10:51:57;24.90;56.10
16901;DHT22;8567;52.540;6.434;2022-08-19T10:54:41;24.90;56.20
16901;DHT22;8567;52.540;6.434;2022-08-19T10:57:29;24.80;56.30
16901;DHT22;8567;52.540;6.434;2022-08-19T10:59:56;24.80;56.20
16901;DHT22;8567;52.540;6.434;2022-08-19T11:02:24;24.90;56.10
16901;DHT22;8567;52.540;6.434;2022-08-19T11:04:51;24.90;56.20
16901;DHT22;8567;52.540;6.434;2022-08-19T11:07:18;24.90;56.00
16901;DHT22;8567;52.540;6.434;2022-08-19T11:09:44;24.90;56.00
16901;DHT22;8567;52.540;6.434;2022-08-19T11:12:12;24.90;56.10
16901;DHT22;8567;52.540;6.434;2022-08-19T11:14:40;24.90;56.20
16901;DHT22;8567;52.540;6.434;2022-08-19T11:17:07;24.80;56.40
16901;DHT22;8567;52.540;6.434;2022-08-19T11:19:36;24.80;56.50
16901;DHT22;8567;52.540;6.434;2022-08-19T11:22:02;24.70;56.60
16901;DHT22;8567;52.540;6.434;2022-08-19T11:24:30;24.70;56.70
16901;DHT22;8567;52.540;6.434;2022-08-19T11:27:01;24.70;56.70
16901;DHT22;8567;52.540;6.434;2022-08-19T11:29:30;24.70;56.80
16901;DHT22;8567;52.540;6.434;2022-08-19T11:31:56;24.70;56.80
16901;DHT22;8567;52.540;6.434;2022-08-19T11:34:26;24.70;56.90
16901;DHT22;8567;52.540;6.434;2022-08-19T11:36:55;24.70;57.00
16901;DHT22;8567;52.540;6.434;2022-08-19T11:39:24;24.70;57.20
16901;DHT22;8567;52.540;6.434;2022-08-19T11:41:51;24.80;58.20
16901;DHT22;8567;52.540;6.434;2022-08-19T11:44:18;24.90;56.70
16901;DHT22;8567;52.540;6.434;2022-08-19T11:46:45;25.00;56.90
16901;DHT22;8567;52.540;6.434;2022-08-19T11:49:13;25.00;56.80
16901;DHT22;8567;52.540;6.434;2022-08-19T11:51:40;25.10;56.70
16901;DHT22;8567;52.540;6.434;2022-08-19T11:54:10;25.10;56.60
16901;DHT22;8567;52.540;6.434;2022-08-19T11:56:39;25.10;56.60
16901;DHT22;8567;52.540;6.434;2022-08-19T11:59:05;25.10;56.40
16901;DHT22;8567;52.540;6.434;2022-08-19T12:01:33;25.10;56.30
16901;DHT22;8567;52.540;6.434;2022-08-19T12:03:59;25.00;56.60
16901;DHT22;8567;52.540;6.434;2022-08-19T12:06:29;25.10;57.70
16901;DHT22;8567;52.540;6.434;2022-08-19T12:08:58;25.20;57.40
16901;DHT22;8567;52.540;6.434;2022-08-19T12:11:27;25.20;56.70
16901;DHT22;8567;52.540;6.434;2022-08-19T12:13:54;25.30;57.10
16901;DHT22;8567;52.540;6.434;2022-08-19T12:16:23;25.30;56.80
16901;DHT22;8567;52.540;6.434;2022-08-19T12:18:50;25.40;57.10
16901;DHT22;8567;52.540;6.434;2022-08-19T12:21:20;25.40;56.50
16901;DHT22;8567;52.540;6.434;2022-08-19T12:23:47;25.50;56.60
16901;DHT22;8567;52.540;6.434;2022-08-19T12:26:16;25.50;56.90
16901;DHT22;8567;52.540;6.434;2022-08-19T12:28:44;25.50;56.50
16901;DHT22;8567;52.540;6.434;2022-08-19T12:31:11;25.50;56.60
16901;DHT22;8567;52.540;6.434;2022-08-19T12:33:38;25.50;56.50
16901;DHT22;8567;52.540;6.434;2022-08-19T12:36:09;25.50;56.60
16901;DHT22;8567;52.540;6.434;2022-08-19T12:38:38;25.50;56.30
16901;DHT22;8567;52.540;6.434;2022-08-19T12:41:05;25.50;56.90
16901;DHT22;8567;52.540;6.434;2022-08-19T12:43:33;25.60;56.30
16901;DHT22;8567;52.540;6.434;2022-08-19T12:46:02;25.60;56.30
16901;DHT22;8567;52.540;6.434;2022-08-19T12:48:29;25.50;56.30
16901;DHT22;8567;52.540;6.434;2022-08-19T12:50:56;25.60;56.40
16901;DHT22;8567;52.540;6.434;2022-08-19T12:53:23;25.60;56.40
16901;DHT22;8567;52.540;6.434;2022-08-19T12:55:55;25.70;56.20
16901;DHT22;8567;52.540;6.434;2022-08-19T12:58:22;25.70;56.10
16901;DHT22;8567;52.540;6.434;2022-08-19T13:00:49;25.70;56.00
16901;DHT22;8567;52.540;6.434;2022-08-19T13:03:17;25.70;56.10
16901;DHT22;8567;52.540;6.434;2022-08-19T13:05:44;25.60;56.10
16901;DHT22;8567;52.540;6.434;2022-08-19T13:08:11;25.70;56.60
16901;DHT22;8567;52.540;6.434;2022-08-19T13:10:38;25.80;56.60
16901;DHT22;8567;52.540;6.434;2022-08-19T13:13:06;25.70;56.40
16901;DHT22;8567;52.540;6.434;2022-08-19T13:15:36;25.80;56.20
16901;DHT22;8567;52.540;6.434;2022-08-19T13:18:05;25.80;56.10
16901;DHT22;8567;52.540;6.434;2022-08-19T13:20:34;25.70;56.00
16901;DHT22;8567;52.540;6.434;2022-08-19T13:23:01;25.70;56.40
16901;DHT22;8567;52.540;6.434;2022-08-19T13:25:29;25.70;56.40
16901;DHT22;8567;52.540;6.434;2022-08-19T13:27:56;25.70;56.00
16901;DHT22;8567;52.540;6.434;2022-08-19T13:30:23;25.80;56.00
16901;DHT22;8567;52.540;6.434;2022-08-19T13:33:07;25.80;55.90
16901;DHT22;8567;52.540;6.434;2022-08-19T13:35:40;25.80;56.10
16901;DHT22;8567;52.540;6.434;2022-08-19T13:38:07;25.80;56.00
16901;DHT22;8567;52.540;6.434;2022-08-19T13:40:34;25.80;56.00
16901;DHT22;8567;52.540;6.434;2022-08-19T13:43:03;25.90;55.90
16901;DHT22;8567;52.540;6.434;2022-08-19T13:45:32;25.90;55.70
16901;DHT22;8567;52.540;6.434;2022-08-19T13:48:00;25.90;55.80
16901;DHT22;8567;52.540;6.434;2022-08-19T13:50:30;25.80;55.90
16901;DHT22;8567;52.540;6.434;2022-08-19T13:52:59;25.80;56.10
16901;DHT22;8567;52.540;6.434;2022-08-19T13:55:27;25.70;56.20
16901;DHT22;8567;52.540;6.434;2022-08-19T13:57:56;25.70;56.20
16901;DHT22;8567;52.540;6.434;2022-08-19T14:00:25;25.70;56.20
16901;DHT22;8567;52.540;6.434;2022-08-19T14:02:54;25.70;56.10
16901;DHT22;8567;52.540;6.434;2022-08-19T14:05:22;25.70;56.10
16901;DHT22;8567;52.540;6.434;2022-08-19T14:07:49;25.70;56.00
16901;DHT22;8567;52.540;6.434;2022-08-19T14:10:18;25.80;56.10
16901;DHT22;8567;52.540;6.434;2022-08-19T14:12:45;25.90;56.20
16901;DHT22;8567;52.540;6.434;2022-08-19T14:15:13;26.00;55.80
16901;DHT22;8567;52.540;6.434;2022-08-19T14:17:42;26.20;55.50
16901;DHT22;8567;52.540;6.434;2022-08-19T14:20:11;26.30;55.60
16901;DHT22;8567;52.540;6.434;2022-08-19T14:22:39;26.20;56.10
16901;DHT22;8567;52.540;6.434;2022-08-19T14:25:08;26.20;56.00
16901;DHT22;8567;52.540;6.434;2022-08-19T14:27:38;26.20;56.00
16901;DHT22;8567;52.540;6.434;2022-08-19T14:30:07;26.30;56.20
16901;DHT22;8567;52.540;6.434;2022-08-19T14:32:34;26.20;56.60
16901;DHT22;8567;52.540;6.434;2022-08-19T14:35:01;26.20;56.80
16901;DHT22;8567;52.540;6.434;2022-08-19T14:37:28;26.20;57.10
16901;DHT22;8567;52.540;6.434;2022-08-19T14:39:55;26.20;57.30
16901;DHT22;8567;52.540;6.434;2022-08-19T14:42:21;26.20;57.20
16901;DHT22;8567;52.540;6.434;2022-08-19T14:44:49;26.30;57.00
16901;DHT22;8567;52.540;6.434;2022-08-19T14:47:16;26.30;57.20
16901;DHT22;8567;52.540;6.434;2022-08-19T14:49:43;26.30;57.30
16901;DHT22;8567;52.540;6.434;2022-08-19T14:52:10;26.20;57.60
16901;DHT22;8567;52.540;6.434;2022-08-19T14:54:37;26.20;58.00
16901;DHT22;8567;52.540;6.434;2022-08-19T14:57:03;26.20;57.90
16901;DHT22;8567;52.540;6.434;2022-08-19T14:59:30;26.10;58.10
16901;DHT22;8567;52.540;6.434;2022-08-19T15:01:58;26.10;58.20
16901;DHT22;8567;52.540;6.434;2022-08-19T15:04:25;26.10;58.30
16901;DHT22;8567;52.540;6.434;2022-08-19T15:06:52;26.10;58.40
16901;DHT22;8567;52.540;6.434;2022-08-19T15:09:18;26.00;58.60
16901;DHT22;8567;52.540;6.434;2022-08-19T15:11:45;26.00;58.80
16901;DHT22;8567;52.540;6.434;2022-08-19T15:14:14;26.00;58.50
16901;DHT22;8567;52.540;6.434;2022-08-19T15:16:40;26.00;58.80
16901;DHT22;8567;52.540;6.434;2022-08-19T15:19:09;25.90;58.50
16901;DHT22;8567;52.540;6.434;2022-08-19T15:21:37;25.90;58.70
16901;DHT22;8567;52.540;6.434;2022-08-19T15:24:04;25.80;58.70
16901;DHT22;8567;52.540;6.434;2022-08-19T15:26:31;25.80;58.80
16901;DHT22;8567;52.540;6.434;2022-08-19T15:28:58;25.80;58.70
16901;DHT22;8567;52.540;6.434;2022-08-19T15:31:25;25.80;58.50
16901;DHT22;8567;52.540;6.434;2022-08-19T15:33:53;25.70;58.70
16901;DHT22;8567;52.540;6.434;2022-08-19T15:36:23;25.80;58.50
16901;DHT22;8567;52.540;6.434;2022-08-19T15:38:50;25.80;58.50
16901;DHT22;8567;52.540;6.434;2022-08-19T15:41:19;25.80;58.60
16901;DHT22;8567;52.540;6.434;2022-08-19T15:43:50;25.90;58.50
16901;DHT22;8567;52.540;6.434;2022-08-19T15:46:19;25.90;58.30
16901;DHT22;8567;52.540;6.434;2022-08-19T15:48:47;25.90;58.40
16901;DHT22;8567;52.540;6.434;2022-08-19T15:51:14;25.90;58.10
16901;DHT22;8567;52.540;6.434;2022-08-19T15:53:43;25.90;58.10